createdAt,value
2022-08-05T00:00:17.351Z,21.04
2022-08-05T00:02:50.882Z,20.99
2022-08-05T00:06:01.923Z,20.91
2022-08-05T00:08:32.655Z,21.03
2022-08-05T00:10:57.329Z,20.93
2022-08-05T00:13:39.084Z,20.89
2022-08-05T00:16:12.255Z,20.85
2022-08-05T00:18:42.525Z,20.95
2022-08-05T00:21:12.540Z,20.89
2022-08-05T00:23:46.307Z,20.90
2022-08-05T00:26:20.620Z,20.80
2022-08-05T00:28:47.550Z,20.78
2022-08-05T00:31:16.285Z,20.69
2022-08-05T00:34:54.889Z,20.72
2022-08-05T00:37:10.690Z,20.66
2022-08-05T00:39:16.963Z,20.69
2022-08-05T00:41:55.068Z,20.73
2022-08-05T00:44:30.663Z,20.68
2022-08-05T00:47:01.844Z,20.63
2022-08-05T00:49:44.350Z,20.69
2022-08-05T00:52:28.233Z,20.71
2022-08-05T00:54:56.308Z,20.62
2022-08-05T00:57:25.447Z,20.68
2022-08-05T00:59:58.904Z,20.77
2022-08-05T01:02:25.845Z,20.75
2022-08-05T01:04:52.721Z,20.69
2022-08-05T01:07:19.646Z,20.83
2022-08-05T01:09:46.724Z,20.84
2022-08-05T01:12:25.165Z,20.83
2022-08-05T01:15:35.480Z,20.89
2022-08-05T01:18:05.224Z,20.91
2022-08-05T01:20:58.042Z,20.85
2022-08-05T01:23:43.646Z,20.81
2022-08-05T01:26:31.867Z,20.85
2022-08-05T01:29:05.108Z,20.94
2022-08-05T01:31:49.706Z,20.79
2022-08-05T01:34:28.047Z,20.92
2022-08-05T01:37:24.697Z,20.86
2022-08-05T01:39:54.981Z,20.88
2022-08-05T01:42:27.771Z,20.89
2022-08-05T01:44:59.173Z,20.83
2022-08-05T01:47:38.555Z,20.87
2022-08-05T01:50:28.698Z,20.87
2022-08-05T01:53:01.572Z,20.91
2022-08-05T01:55:32.413Z,20.89
2022-08-05T01:58:12.358Z,20.90
2022-08-05T02:00:45.709Z,20.80
2022-08-05T02:03:31.333Z,20.88
2022-08-05T02:06:05.525Z,20.87
2022-08-05T02:08:57.912Z,20.81
2022-08-05T02:11:33.121Z,20.83
2022-08-05T02:14:17.614Z,20.79
2022-08-05T02:16:52.479Z,20.84
2022-08-05T02:19:46.940Z,20.78
2022-08-05T02:22:27.271Z,20.69
2022-08-05T02:25:05.100Z,20.64
2022-08-05T02:27:59.905Z,20.58
2022-08-05T02:30:26.898Z,20.53
2022-08-05T02:32:56.083Z,20.46
2022-08-05T02:35:28.175Z,20.58
2022-08-05T02:38:02.170Z,20.45
2022-08-05T02:40:31.523Z,20.56
2022-08-05T02:42:59.692Z,20.45
2022-08-05T02:45:28.646Z,20.46
2022-08-05T02:48:17.372Z,20.43
2022-08-05T02:50:47.417Z,20.49
2022-08-05T02:53:18.892Z,20.47
2022-08-05T02:56:00.093Z,20.54
2022-08-05T02:58:30.343Z,20.54
2022-08-05T03:01:00.768Z,20.45
2022-08-05T03:03:33.970Z,20.46
2022-08-05T03:06:54.921Z,20.50
2022-08-05T03:09:06.720Z,20.48
2022-08-05T03:11:57.093Z,20.61
2022-08-05T03:14:21.785Z,20.50
2022-08-05T03:16:48.793Z,20.50
2022-08-05T03:19:33.174Z,20.45
2022-08-05T03:22:01.637Z,20.43
2022-08-05T03:24:30.913Z,20.47
2022-08-05T03:26:59.409Z,20.51
2022-08-05T03:29:44.353Z,20.56
2022-08-05T03:32:14.388Z,20.35
2022-08-05T03:34:50.820Z,20.46
2022-08-05T03:37:20.579Z,20.44
2022-08-05T03:40:01.765Z,20.37
2022-08-05T03:42:32.966Z,20.45
2022-08-05T03:45:21.857Z,20.40
2022-08-05T03:47:51.169Z,20.41
2022-08-05T03:50:18.362Z,20.29
2022-08-05T03:55:06.866Z,20.31
2022-08-05T03:56:35.894Z,20.28
2022-08-05T03:59:06.450Z,20.29
2022-08-05T04:01:37.855Z,20.24
2022-08-05T04:04:09.890Z,20.19
2022-08-05T04:06:38.430Z,20.16
2022-08-05T04:09:15.925Z,20.22
2022-08-05T04:11:53.437Z,20.26
2022-08-05T04:14:30.089Z,20.37
2022-08-05T04:17:00.194Z,20.41
2022-08-05T04:19:31.191Z,20.35
2022-08-05T04:22:09.849Z,20.46
2022-08-05T04:24:52.324Z,20.48
2022-08-05T04:27:41.516Z,20.49
2022-08-05T04:30:09.151Z,20.56
2022-08-05T04:32:36.678Z,20.45
2022-08-05T04:35:05.217Z,20.45
2022-08-05T04:38:02.105Z,20.44
2022-08-05T04:40:21.529Z,20.51
2022-08-05T04:42:48.944Z,20.60
2022-08-05T04:45:31.109Z,20.63
2022-08-05T04:48:05.438Z,20.60
2022-08-05T04:51:03.075Z,20.63
2022-08-05T04:53:25.409Z,20.55
2022-08-05T04:56:15.129Z,20.58
2022-08-05T04:58:39.265Z,20.70
2022-08-05T05:01:06.546Z,20.50
2022-08-05T05:03:42.329Z,20.70
2022-08-05T05:06:39.382Z,20.70
2022-08-05T05:08:59.908Z,20.60
2022-08-05T05:11:41.550Z,20.62
2022-08-05T05:14:15.966Z,20.55
2022-08-05T05:16:43.291Z,20.45
2022-08-05T05:19:19.366Z,20.53
2022-08-05T05:21:50.402Z,20.51
2022-08-05T05:24:22.555Z,20.53
2022-08-05T05:27:09.452Z,20.58
2022-08-05T05:30:04.496Z,20.51
2022-08-05T05:32:24.084Z,20.54
2022-08-05T05:34:52.964Z,20.55
2022-08-05T05:37:20.650Z,20.61
2022-08-05T05:39:56.104Z,20.48
2022-08-05T05:42:23.385Z,20.56
2022-08-05T05:44:51.090Z,20.60
2022-08-05T05:47:22.113Z,20.58
2022-08-05T05:49:56.982Z,20.57
2022-08-05T05:52:34.525Z,20.57
2022-08-05T05:55:13.397Z,20.48
2022-08-05T05:57:52.909Z,20.49
2022-08-05T06:00:21.702Z,20.50
2022-08-05T06:02:58.565Z,20.36
2022-08-05T06:05:25.808Z,20.46
2022-08-05T06:07:57.884Z,20.48
2022-08-05T06:10:29.228Z,20.30
2022-08-05T06:12:56.507Z,20.42
2022-08-05T06:15:25.128Z,20.21
2022-08-05T06:18:11.973Z,20.34
2022-08-05T06:20:38.883Z,20.45
2022-08-05T06:23:05.728Z,20.45
2022-08-05T06:26:12.424Z,20.34
2022-08-05T06:28:21.266Z,20.39
2022-08-05T06:30:48.861Z,20.40
2022-08-05T06:33:19.398Z,20.39
2022-08-05T06:36:07.684Z,20.37
2022-08-05T06:38:37.273Z,20.28
2022-08-05T06:41:07.693Z,20.32
2022-08-05T06:43:58.622Z,20.34
2022-08-05T06:46:22.843Z,20.31
2022-08-05T06:48:59.038Z,20.29
2022-08-05T06:51:30.161Z,20.34
2022-08-05T06:54:02.893Z,20.39
2022-08-05T06:56:34.116Z,20.53
2022-08-05T06:59:02.166Z,20.47
2022-08-05T07:01:32.363Z,20.50
2022-08-05T07:04:02.186Z,20.31
2022-08-05T07:06:29.382Z,20.36
2022-08-05T07:08:59.030Z,20.36
2022-08-05T07:11:28.835Z,20.19
2022-08-05T07:14:20.541Z,20.19
2022-08-05T07:17:58.836Z,20.14
2022-08-05T07:22:35.844Z,20.20
2022-08-05T07:25:23.058Z,20.24
2022-08-05T07:27:58.272Z,20.27
2022-08-05T07:30:38.429Z,20.22
2022-08-05T07:33:16.122Z,20.04
2022-08-05T07:36:04.336Z,20.17
2022-08-05T07:38:43.208Z,20.28
2022-08-05T07:42:07.246Z,20.30
2022-08-05T07:44:05.523Z,20.13
2022-08-05T07:46:38.861Z,20.07
2022-08-05T07:49:07.959Z,20.20
2022-08-05T07:51:40.826Z,20.20
2022-08-05T07:54:26.583Z,20.19
2022-08-05T07:57:13.575Z,20.13
2022-08-05T07:59:44.180Z,20.17
2022-08-05T08:02:15.969Z,20.06
2022-08-05T08:04:49.250Z,20.07
2022-08-05T08:07:22.428Z,19.96
2022-08-05T08:09:52.599Z,19.98
2022-08-05T08:12:35.103Z,19.99
2022-08-05T08:15:09.743Z,20.18
2022-08-05T08:17:46.252Z,20.39
2022-08-05T08:20:44.174Z,20.35
2022-08-05T08:23:04.920Z,20.40
2022-08-05T08:25:59.774Z,20.50
2022-08-05T08:28:35.478Z,20.40
2022-08-05T08:31:06.319Z,20.42
2022-08-05T08:33:37.611Z,20.33
2022-08-05T08:36:38.539Z,20.18
2022-08-05T08:38:56.999Z,20.29
2022-08-05T08:41:50.872Z,20.39
2022-08-05T08:45:22.541Z,20.41
2022-08-05T08:47:46.970Z,20.69
2022-08-05T08:50:22.533Z,20.66
2022-08-05T08:52:43.692Z,20.73
2022-08-05T08:55:19.543Z,20.75
2022-08-05T08:58:05.585Z,20.81
2022-08-05T09:00:33.788Z,20.96
2022-08-05T09:03:05.776Z,21.06
2022-08-05T09:05:38.482Z,21.04
2022-08-05T09:08:27.502Z,20.91
2022-08-05T09:10:59.064Z,20.89
2022-08-05T09:13:31.787Z,21.01
2022-08-05T09:16:14.716Z,20.64
2022-08-05T09:18:44.519Z,20.77
2022-08-05T09:21:20.885Z,20.83
2022-08-05T09:24:08.721Z,20.71
2022-08-05T09:26:37.441Z,20.60
2022-08-05T09:29:07.019Z,20.55
2022-08-05T09:32:40.352Z,20.35
2022-08-05T09:34:23.050Z,20.28
2022-08-05T09:36:55.251Z,20.27
2022-08-05T09:39:41.167Z,20.18
2022-08-05T09:42:24.364Z,20.21
2022-08-05T09:44:55.996Z,20.13
2022-08-05T09:47:30.665Z,20.14
2022-08-05T09:50:13.792Z,20.05
2022-08-05T09:52:45.784Z,20.11
2022-08-05T09:55:57.261Z,20.01
2022-08-05T09:58:13.357Z,19.77
2022-08-05T10:00:52.471Z,19.75
2022-08-05T10:03:19.501Z,19.69
2022-08-05T10:05:47.845Z,19.68
2022-08-05T10:08:35.948Z,19.74
2022-08-05T10:11:13.509Z,19.69
2022-08-05T10:13:47.751Z,19.66
2022-08-05T10:16:41.685Z,19.56
2022-08-05T10:19:23.304Z,19.71
2022-08-05T10:21:58.912Z,19.68
2022-08-05T10:24:26.993Z,19.69
2022-08-05T10:27:00.472Z,19.75
2022-08-05T10:30:41.829Z,19.69
2022-08-05T10:33:00.860Z,19.61
2022-08-05T10:35:03.921Z,19.58
2022-08-05T10:37:40.498Z,19.62
2022-08-05T10:40:31.667Z,19.63
2022-08-05T10:43:06.345Z,19.60
2022-08-05T10:45:40.090Z,19.56
2022-08-05T10:48:30.130Z,19.53
2022-08-05T10:51:01.484Z,19.63
2022-08-05T10:53:38.006Z,19.68
2022-08-05T10:56:21.387Z,19.67
2022-08-05T10:58:55.695Z,19.70
2022-08-05T11:01:54.144Z,19.72
2022-08-05T11:04:23.326Z,19.68
2022-08-05T11:07:04.873Z,19.47
2022-08-05T11:09:46.551Z,19.80
2022-08-05T11:12:50.479Z,19.95
2022-08-05T11:15:21.511Z,20.13
2022-08-05T11:18:00.484Z,20.15
2022-08-05T11:20:45.105Z,20.22
2022-08-05T11:23:33.568Z,20.21
2022-08-05T11:26:27.747Z,19.92
2022-08-05T11:28:56.657Z,20.16
2022-08-05T11:31:58.789Z,19.98
2022-08-05T11:34:36.862Z,20.22
2022-08-05T11:37:06.240Z,20.16
2022-08-05T11:39:55.465Z,20.06
2022-08-05T11:42:28.238Z,20.04
2022-08-05T11:45:03.202Z,20.26
2022-08-05T11:47:48.600Z,20.33
2022-08-05T11:50:17.847Z,20.24
2022-08-05T11:52:48.442Z,20.39
2022-08-05T11:55:16.583Z,20.56
2022-08-05T11:58:10.616Z,20.56
2022-08-05T12:00:38.454Z,20.14
2022-08-05T12:03:16.655Z,19.99
2022-08-05T12:05:58.555Z,20.04
2022-08-05T12:08:25.307Z,20.07
2022-08-05T12:10:53.929Z,20.21
2022-08-05T12:13:47.468Z,20.20
2022-08-05T12:16:15.594Z,20.01
2022-08-05T12:18:49.477Z,19.84
2022-08-05T12:21:30.172Z,19.88
2022-08-05T12:24:09.755Z,19.77
2022-08-05T12:26:52.635Z,19.83
2022-08-05T12:29:23.139Z,19.74
2022-08-05T12:31:57.916Z,19.74
2022-08-05T12:34:32.565Z,19.48
2022-08-05T12:37:06.545Z,19.48
2022-08-05T12:39:37.510Z,19.52
2022-08-05T12:42:17.649Z,19.31
2022-08-05T12:44:45.076Z,19.53
2022-08-05T12:47:25.455Z,19.42
2022-08-05T12:50:03.389Z,19.21
2022-08-05T12:52:38.516Z,19.25
2022-08-05T12:55:21.846Z,19.16
2022-08-05T12:58:48.202Z,19.29
2022-08-05T13:02:03.460Z,19.22
2022-08-05T13:03:32.610Z,19.15
2022-08-05T13:06:01.557Z,19.26
2022-08-05T13:08:30.282Z,19.08
2022-08-05T13:11:02.146Z,18.87
2022-08-05T13:14:05.714Z,18.74
2022-08-05T13:16:19.524Z,18.77
2022-08-05T13:18:57.968Z,18.64
2022-08-05T13:21:28.531Z,18.61
2022-08-05T13:24:08.757Z,18.61
2022-08-05T13:26:36.277Z,18.52
2022-08-05T13:29:05.171Z,18.48
2022-08-05T13:32:02.827Z,18.28
2022-08-05T13:34:25.935Z,18.19
2022-08-05T13:36:54.131Z,18.12
2022-08-05T13:40:13.488Z,18.10
2022-08-05T13:42:14.736Z,18.12
2022-08-05T13:44:46.379Z,18.08
2022-08-05T13:47:35.457Z,18.00
2022-08-05T13:50:06.388Z,17.94
2022-08-05T13:52:35.949Z,17.93
2022-08-05T13:55:07.473Z,18.06
2022-08-05T13:57:51.308Z,17.87
2022-08-05T14:00:27.241Z,18.06
2022-08-05T14:02:56.853Z,18.07
2022-08-05T14:05:48.343Z,18.12
2022-08-05T14:08:20.907Z,18.03
2022-08-05T14:11:03.125Z,18.05
2022-08-05T14:13:41.594Z,17.97
2022-08-05T14:16:11.470Z,17.87
2022-08-05T14:18:38.623Z,17.83
2022-08-05T14:22:08.210Z,17.90
2022-08-05T14:23:53.143Z,17.87
2022-08-05T14:26:38.420Z,17.92
2022-08-05T14:29:16.244Z,17.91
2022-08-05T14:32:03.944Z,17.93
2022-08-05T14:34:35.394Z,17.84
2022-08-05T14:37:03.740Z,17.79
2022-08-05T14:39:49.277Z,17.91
2022-08-05T14:42:21.011Z,17.95
2022-08-05T14:44:49.398Z,17.97
2022-08-05T14:47:16.988Z,18.12
2022-08-05T14:50:17.784Z,18.08
2022-08-05T14:52:57.748Z,18.04
2022-08-05T14:55:38.630Z,18.06
2022-08-05T14:58:11.782Z,18.05
2022-08-05T15:00:58.035Z,17.90
2022-08-05T15:03:33.949Z,18.00
2022-08-05T15:06:13.188Z,18.06
2022-08-05T15:09:01.210Z,17.96
2022-08-05T15:11:51.573Z,17.83
2022-08-05T15:14:34.719Z,17.77
2022-08-05T15:17:05.213Z,17.75
2022-08-05T15:19:37.314Z,17.74
2022-08-05T15:22:08.860Z,17.92
2022-08-05T15:24:36.525Z,17.94
2022-08-05T15:27:09.140Z,17.76
2022-08-05T15:29:41.848Z,17.68
2022-08-05T15:32:09.260Z,17.63
2022-08-05T15:34:36.179Z,17.79
2022-08-05T15:37:06.924Z,17.85
2022-08-05T15:41:04.305Z,17.82
2022-08-05T15:42:55.230Z,17.78
2022-08-05T15:45:18.726Z,17.80
2022-08-05T15:48:05.049Z,17.59
2022-08-05T15:50:33.638Z,17.68
2022-08-05T15:53:04.122Z,17.69
2022-08-05T15:56:02.043Z,17.75
2022-08-05T15:58:19.672Z,17.82
2022-08-05T16:01:03.416Z,17.85
2022-08-05T16:03:40.932Z,17.87
2022-08-05T16:06:11.342Z,17.94
2022-08-05T16:08:39.932Z,17.88
2022-08-05T16:11:08.921Z,17.92
2022-08-05T16:13:35.981Z,17.97
2022-08-05T16:16:04.157Z,18.04
2022-08-05T16:18:33.108Z,18.04
2022-08-05T16:21:04.260Z,18.07
2022-08-05T16:23:32.957Z,18.12
2022-08-05T16:26:20.068Z,18.23
2022-08-05T16:28:53.569Z,18.43
2022-08-05T16:31:21.592Z,18.62
2022-08-05T16:33:48.910Z,18.55
2022-08-05T16:36:20.483Z,18.40
2022-08-05T16:38:54.483Z,18.30
2022-08-05T16:42:15.105Z,18.22
2022-08-05T16:44:11.108Z,18.26
2022-08-05T16:46:41.095Z,18.26
2022-08-05T16:49:09.925Z,18.21
2022-08-05T16:51:42.562Z,18.13
2022-08-05T16:54:25.803Z,18.18
2022-08-05T16:56:55.622Z,18.14
2022-08-05T16:59:23.302Z,18.11
2022-08-05T17:01:54.673Z,18.23
2022-08-05T17:04:26.576Z,18.28
2022-08-05T17:06:55.449Z,18.52
2022-08-05T17:09:23.176Z,18.48
2022-08-05T17:11:56.039Z,18.49
2022-08-05T17:14:36.955Z,18.58
2022-08-05T17:17:14.444Z,18.44
2022-08-05T17:19:45.540Z,18.50
2022-08-05T17:22:17.783Z,18.49
2022-08-05T17:24:57.968Z,18.44
2022-08-05T17:27:33.712Z,18.44
2022-08-05T17:30:12.191Z,18.46
2022-08-05T17:32:45.629Z,18.40
2022-08-05T17:35:15.501Z,18.39
2022-08-05T17:37:48.376Z,18.23
2022-08-05T17:40:17.260Z,18.32
2022-08-05T17:42:51.884Z,18.23
2022-08-05T17:45:22.169Z,18.22
2022-08-05T17:47:54.661Z,18.19
2022-08-05T17:50:28.869Z,18.24
2022-08-05T17:52:59.169Z,18.14
2022-08-05T17:55:27.217Z,18.15
2022-08-05T17:58:02.206Z,18.13
2022-08-05T18:00:29.806Z,18.11
2022-08-05T18:02:57.314Z,18.05
2022-08-05T18:05:28.051Z,17.97
2022-08-05T18:07:56.750Z,17.91
2022-08-05T18:10:23.914Z,17.80
2022-08-05T18:12:51.665Z,17.80
2022-08-05T18:15:19.022Z,17.88
2022-08-05T18:17:59.599Z,17.83
2022-08-05T18:20:32.044Z,17.85
2022-08-05T18:23:00.600Z,17.74
2022-08-05T18:25:39.101Z,17.69
2022-08-05T18:28:09.832Z,17.53
2022-08-05T18:30:39.027Z,17.49
2022-08-05T18:33:08.457Z,17.32
2022-08-05T18:35:59.993Z,17.30
2022-08-05T18:38:25.935Z,17.23
2022-08-05T18:41:56.461Z,17.23
2022-08-05T18:43:42.764Z,17.21
2022-08-05T18:46:15.942Z,17.16
2022-08-05T18:48:51.859Z,17.17
2022-08-05T18:52:05.360Z,17.18
2022-08-05T18:54:31.724Z,17.15
2022-08-05T18:57:02.597Z,17.19
2022-08-05T18:59:43.441Z,17.21
2022-08-05T19:02:28.671Z,17.23
2022-08-05T19:06:06.023Z,17.26
2022-08-05T19:07:55.313Z,17.23
2022-08-05T19:10:27.839Z,17.26
2022-08-05T19:12:56.972Z,17.29
2022-08-05T19:15:54.643Z,17.25
2022-08-05T19:18:20.643Z,17.24
2022-08-05T19:20:51.542Z,17.17
2022-08-05T19:24:04.286Z,17.03
2022-08-05T19:26:05.382Z,17.03
2022-08-05T19:28:42.122Z,16.89
2022-08-05T19:31:13.196Z,16.89
2022-08-05T19:33:48.302Z,16.92
2022-08-05T19:36:27.078Z,16.85
2022-08-05T19:39:01.180Z,16.79
2022-08-05T19:41:58.231Z,16.76
2022-08-05T19:44:19.200Z,16.71
2022-08-05T19:46:46.132Z,16.76
2022-08-05T19:49:16.867Z,16.74
2022-08-05T19:52:08.391Z,16.74
2022-08-05T19:54:34.671Z,16.72
2022-08-05T19:57:09.660Z,16.69
2022-08-05T19:59:56.320Z,16.65
2022-08-05T20:02:26.839Z,16.61
2022-08-05T20:04:55.601Z,16.65
2022-08-05T20:07:46.591Z,16.74
2022-08-05T20:10:14.494Z,16.73
2022-08-05T20:12:47.625Z,16.81
2022-08-05T20:15:48.099Z,16.77
2022-08-05T20:18:10.873Z,16.78
2022-08-05T20:20:52.157Z,16.69
2022-08-05T20:23:23.686Z,16.54
2022-08-05T20:26:08.980Z,16.58
2022-08-05T20:28:48.727Z,16.57
2022-08-05T20:31:17.070Z,16.50
2022-08-05T20:33:45.340Z,16.52
2022-08-05T20:36:14.309Z,16.46
2022-08-05T20:38:53.841Z,16.40
2022-08-05T20:41:27.445Z,16.33
2022-08-05T20:44:18.847Z,16.40
2022-08-05T20:47:03.542Z,16.20
2022-08-05T20:49:38.106Z,16.26
2022-08-05T20:52:08.539Z,16.19
2022-08-05T20:54:43.442Z,16.05
2022-08-05T20:57:41.803Z,16.10
2022-08-05T21:00:41.591Z,16.06
2022-08-05T21:03:04.505Z,16.07
2022-08-05T21:05:47.824Z,15.92
2022-08-05T21:08:28.140Z,16.03
2022-08-05T21:11:11.572Z,15.98
2022-08-05T21:13:47.512Z,15.86
2022-08-05T21:16:29.862Z,15.82
2022-08-05T21:19:01.680Z,15.87
2022-08-05T21:21:39.178Z,15.76
2022-08-05T21:24:07.326Z,15.80
2022-08-05T21:26:34.159Z,15.77
2022-08-05T21:29:03.708Z,15.78
2022-08-05T21:31:41.474Z,15.95
2022-08-05T21:34:10.587Z,15.93
2022-08-05T21:36:39.443Z,15.92
2022-08-05T21:39:10.187Z,15.83
2022-08-05T21:41:41.873Z,15.89
2022-08-05T21:44:27.089Z,15.86
2022-08-05T21:46:57.919Z,15.81
2022-08-05T21:50:00.030Z,15.66
2022-08-05T21:52:21.625Z,15.67
2022-08-05T21:54:57.171Z,15.76
2022-08-05T21:57:32.708Z,15.68
2022-08-05T22:00:05.385Z,15.69
2022-08-05T22:02:34.456Z,15.58
2022-08-05T22:05:01.734Z,15.58
2022-08-05T22:07:39.834Z,15.70
2022-08-05T22:10:26.573Z,15.73
2022-08-05T22:12:59.152Z,15.63
2022-08-05T22:16:00.481Z,15.68
2022-08-05T22:18:25.791Z,15.76
2022-08-05T22:20:53.754Z,15.76
2022-08-05T22:24:03.007Z,15.78
2022-08-05T22:26:49.990Z,15.80
2022-08-05T22:29:19.049Z,15.81
2022-08-05T22:31:55.229Z,15.80
2022-08-05T22:34:28.502Z,15.81
2022-08-05T22:36:58.338Z,15.80
2022-08-05T22:39:32.505Z,15.67
2022-08-05T22:42:10.470Z,15.58
2022-08-05T22:44:48.243Z,15.51
2022-08-05T22:47:28.896Z,15.38
2022-08-05T22:50:19.423Z,15.33
2022-08-05T22:52:46.807Z,15.27
2022-08-05T22:55:18.284Z,15.09
2022-08-05T22:57:49.087Z,15.00
2022-08-05T23:00:18.310Z,15.02
2022-08-05T23:02:48.843Z,15.01
2022-08-05T23:05:16.099Z,15.08
2022-08-05T23:07:45.407Z,14.95
2022-08-05T23:10:20.230Z,14.93
2022-08-05T23:12:54.570Z,14.94
2022-08-05T23:15:29.364Z,14.92
2022-08-05T23:18:00.585Z,15.01
2022-08-05T23:20:37.027Z,15.02
2022-08-05T23:23:05.896Z,15.06
2022-08-05T23:25:53.471Z,15.06
2022-08-05T23:28:28.545Z,15.00
2022-08-05T23:30:56.780Z,14.88
2022-08-05T23:34:04.255Z,14.84
2022-08-05T23:36:39.951Z,14.89
2022-08-05T23:39:17.150Z,15.03
2022-08-05T23:41:50.949Z,15.06
2022-08-05T23:44:19.745Z,15.06
2022-08-05T23:46:49.806Z,15.06
2022-08-05T23:49:23.897Z,15.02
2022-08-05T23:52:19.569Z,15.15
2022-08-05T23:54:49.340Z,15.15
2022-08-05T23:57:16.423Z,15.14
